Time;durP1;ratioP1;P1;durP2;ratioP2;P2;SDS_P1;SDS_P2;PMS_P1;PMS_P2;Temp;Humidity;BMP_temperature;BMP_pressure;BME280_temperature;BME280_humidity;BME280_pressure;Samples;Min_cycle;Max_cycle;Signal;HPM_P1;HPM_P2
2022/06/11 00:01:32;;;;;;;4.30;3.80;;;22.50;50.70;;;;;;5012351;28;20487;-47
2022/06/11 00:04:02;;;;;;;4.20;3.40;;;22.60;50.80;;;;;;5014922;28;20451;-44
2022/06/11 00:06:30;;;;;;;5.27;3.70;;;22.70;50.50;;;;;;5014506;28;20448;-44
2022/06/11 00:08:56;;;;;;;3.87;3.53;;;22.70;50.50;;;;;;5030974;28;20497;-44
2022/06/11 00:11:22;;;;;;;4.90;3.60;;;22.70;50.80;;;;;;5021231;28;20436;-44
2022/06/11 00:13:49;;;;;;;5.13;3.63;;;22.70;50.60;;;;;;5030580;28;20208;-44
2022/06/11 00:16:17;;;;;;;4.13;3.63;;;22.70;50.60;;;;;;5015052;28;20444;-46
2022/06/11 00:18:44;;;;;;;7.63;3.27;;;22.70;50.50;;;;;;5016390;28;20432;-45
2022/06/11 00:21:11;;;;;;;7.33;3.90;;;22.70;50.70;;;;;;5022083;28;20470;-44
2022/06/11 00:23:38;;;;;;;4.23;3.93;;;22.70;50.60;;;;;;5024648;28;20467;-45
2022/06/11 00:26:05;;;;;;;6.77;5.03;;;22.70;50.70;;;;;;5022642;28;20961;-45
2022/06/11 00:28:30;;;;;;;4.37;3.87;;;22.60;50.90;;;;;;5020465;28;20487;-46
2022/06/11 00:30:56;;;;;;;3.33;3.03;;;22.60;51.00;;;;;;5019975;28;20451;-45
2022/06/11 00:33:22;;;;;;;4.07;3.47;;;22.50;50.90;;;;;;5023470;28;20745;-45
2022/06/11 00:35:48;;;;;;;4.17;3.10;;;22.40;51.00;;;;;;5017203;28;20193;-44
2022/06/11 00:38:14;;;;;;;3.90;3.37;;;22.40;51.60;;;;;;5022881;28;20205;-45
2022/06/11 00:40:44;;;;;;;3.83;3.53;;;22.40;52.10;;;;;;5030167;28;20444;-46
2022/06/11 00:43:12;;;;;;;6.43;3.27;;;22.40;51.30;;;;;;5013853;28;20448;-45
2022/06/11 00:46:19;;;;;;;3.40;3.10;;;22.30;51.40;;;;;;5012739;28;20495;-45
2022/06/11 00:48:45;;;;;;;7.30;3.50;;;22.20;51.60;;;;;;5018956;28;21006;-45
2022/06/11 00:51:19;;;;;;;3.93;3.47;;;22.20;51.90;;;;;;5019404;28;20455;-44
2022/06/11 00:53:58;;;;;;;5.10;3.53;;;22.10;51.90;;;;;;5028351;28;20201;-45
2022/06/11 00:56:40;;;;;;;3.60;3.30;;;22.10;52.10;;;;;;5030088;28;20443;-46
2022/06/11 00:59:13;;;;;;;4.83;3.50;;;22.00;52.60;;;;;;5024538;28;20867;-45
2022/06/11 01:01:39;;;;;;;12.30;3.27;;;22.00;52.40;;;;;;5017010;28;20503;-44
2022/06/11 01:04:31;;;;;;;4.00;3.17;;;22.20;52.10;;;;;;5023527;28;20451;-45
2022/06/11 01:07:05;;;;;;;4.07;3.50;;;22.40;51.60;;;;;;5014386;28;20463;-45
2022/06/11 01:09:43;;;;;;;3.50;3.20;;;22.50;51.10;;;;;;5020974;28;20459;-46
2022/06/11 01:12:42;;;;;;;6.20;3.00;;;22.40;51.20;;;;;;5013269;28;20541;-46
2022/06/11 01:15:24;;;;;;;3.77;2.90;;;22.40;51.30;;;;;;5019429;28;20443;-46
2022/06/11 01:18:08;;;;;;;3.93;3.53;;;22.30;51.40;;;;;;5022396;28;20448;-45
2022/06/11 01:21:08;;;;;;;3.97;2.90;;;22.20;51.80;;;;;;5023837;28;20501;-45
2022/06/11 01:23:33;;;;;;;3.47;3.17;;;22.00;52.20;;;;;;5018965;28;20459;-44
2022/06/11 01:26:20;;;;;;;6.10;3.20;;;22.00;52.40;;;;;;5013630;28;20444;-46
2022/06/11 01:29:00;;;;;;;4.70;3.10;;;22.00;52.50;;;;;;5020731;28;20248;-45
2022/06/11 01:31:35;;;;;;;2.93;2.37;;;21.90;52.50;;;;;;5022041;28;20455;-46
2022/06/11 01:34:20;;;;;;;3.20;2.90;;;21.40;53.80;;;;;;5021997;28;20462;-48
2022/06/11 01:36:50;;;;;;;3.40;3.17;;;21.50;53.50;;;;;;5023181;28;20444;-48
2022/06/11 01:39:42;;;;;;;3.43;3.13;;;21.60;53.40;;;;;;5021764;28;20445;-45
2022/06/11 01:42:19;;;;;;;3.40;3.10;;;21.70;53.10;;;;;;5021459;28;21737;-48
2022/06/11 01:44:45;;;;;;;3.50;3.10;;;21.90;52.80;;;;;;5022666;28;20470;-49
2022/06/11 01:47:14;;;;;;;3.57;3.27;;;22.00;52.20;;;;;;5022959;28;20577;-48
2022/06/11 01:49:44;;;;;;;5.20;3.00;;;22.10;52.20;;;;;;5014610;28;20444;-46
2022/06/11 01:52:36;;;;;;;4.37;3.47;;;22.30;51.70;;;;;;5025940;28;20449;-46
2022/06/11 01:55:24;;;;;;;4.63;3.30;;;22.30;51.30;;;;;;5024758;28;20533;-46
2022/06/11 01:58:01;;;;;;;2.77;2.57;;;22.40;51.20;;;;;;5023925;28;20447;-46
2022/06/11 02:00:45;;;;;;;3.23;2.93;;;22.40;51.10;;;;;;5018812;28;20511;-49
2022/06/11 02:03:20;;;;;;;3.10;2.90;;;22.50;51.00;;;;;;5017435;28;20855;-49
2022/06/11 02:06:13;;;;;;;3.43;3.10;;;22.60;51.00;;;;;;5025844;28;20453;-47
2022/06/11 02:08:53;;;;;;;4.17;3.03;;;22.40;51.10;;;;;;5017454;28;21308;-46
2022/06/11 02:11:29;;;;;;;4.33;3.37;;;22.50;51.00;;;;;;5013611;28;20445;-45
2022/06/11 02:14:04;;;;;;;3.13;2.83;;;22.50;51.00;;;;;;5015911;28;20444;-48
2022/06/11 02:16:36;;;;;;;3.50;2.80;;;22.60;50.60;;;;;;5018265;28;20448;-47
2022/06/11 02:19:12;;;;;;;5.83;3.30;;;22.70;50.40;;;;;;5028063;28;20444;-48
2022/06/11 02:21:47;;;;;;;3.07;2.73;;;22.60;49.90;;;;;;5014861;28;20946;-45
2022/06/11 02:24:21;;;;;;;6.13;3.40;;;22.70;50.30;;;;;;5024367;28;20493;-44
2022/06/11 02:26:51;;;;;;;3.60;3.30;;;22.80;50.00;;;;;;5023031;28;20432;-47
2022/06/11 02:29:20;;;;;;;4.10;3.50;;;22.90;49.80;;;;;;5021143;28;20522;-47
2022/06/11 02:31:58;;;;;;;4.00;3.40;;;23.00;49.60;;;;;;5023613;28;20490;-48
2022/06/11 02:34:26;;;;;;;3.20;2.57;;;23.00;49.50;;;;;;5017652;28;20554;-44
2022/06/11 02:37:02;;;;;;;3.03;2.60;;;23.00;49.30;;;;;;5026561;28;20947;-45
2022/06/11 02:39:31;;;;;;;5.77;3.70;;;23.00;49.40;;;;;;5013719;28;20451;-47
2022/06/11 02:41:57;;;;;;;4.40;3.10;;;23.00;49.40;;;;;;5012054;28;20554;-44
2022/06/11 02:44:23;;;;;;;3.60;2.70;;;22.80;49.30;;;;;;5020329;28;21303;-44
2022/06/11 02:46:49;;;;;;;2.73;2.50;;;22.60;50.00;;;;;;5026494;28;20668;-46
2022/06/11 02:49:36;;;;;;;4.03;3.30;;;22.70;49.80;;;;;;5020396;28;20838;-47
2022/06/11 02:52:08;;;;;;;2.87;2.67;;;22.70;49.60;;;;;;5024036;28;20447;-48
2022/06/11 02:54:34;;;;;;;4.00;2.90;;;22.70;49.40;;;;;;5025723;28;20444;-46
2022/06/11 02:57:04;;;;;;;3.43;3.13;;;22.70;49.90;;;;;;5029564;28;20444;-45
2022/06/11 02:59:30;;;;;;;3.53;3.27;;;22.80;49.40;;;;;;5030002;28;20498;-44
2022/06/11 03:01:56;;;;;;;3.63;3.33;;;22.80;49.00;;;;;;5019935;28;20472;-46
2022/06/11 03:04:25;;;;;;;5.57;3.43;;;22.60;49.60;;;;;;5016987;28;20440;-48
2022/06/11 03:06:52;;;;;;;5.67;3.00;;;22.40;49.80;;;;;;5025635;28;20458;-44
2022/06/11 03:09:22;;;;;;;3.97;3.67;;;22.30;49.90;;;;;;5026693;28;20436;-44
2022/06/11 03:11:48;;;;;;;4.90;3.17;;;22.20;50.20;;;;;;5030162;28;20518;-44
2022/06/11 03:14:14;;;;;;;3.90;3.47;;;22.10;50.60;;;;;;5029298;28;20527;-47
2022/06/11 03:16:41;;;;;;;3.40;3.10;;;22.00;50.90;;;;;;5026273;28;20518;-47
2022/06/11 03:19:09;;;;;;;3.80;3.20;;;21.90;51.10;;;;;;5026631;28;20444;-45
2022/06/11 03:21:36;;;;;;;3.63;3.33;;;21.80;51.40;;;;;;5019679;28;20453;-44
2022/06/11 03:24:02;;;;;;;4.00;3.33;;;21.70;51.50;;;;;;5024858;28;20451;-47
2022/06/11 03:26:28;;;;;;;4.03;3.20;;;21.70;51.50;;;;;;5018255;28;20482;-44
2022/06/11 03:28:53;;;;;;;3.57;3.20;;;21.50;51.90;;;;;;5021091;28;20479;-44
2022/06/11 03:31:19;;;;;;;4.20;3.80;;;21.30;52.60;;;;;;5021824;28;20201;-44
2022/06/11 03:33:45;;;;;;;3.50;3.20;;;21.20;53.00;;;;;;5016205;28;20200;-46
2022/06/11 03:36:13;;;;;;;3.57;3.00;;;21.00;53.00;;;;;;5024990;28;20592;-43
2022/06/11 03:38:40;;;;;;;6.10;3.03;;;20.90;53.50;;;;;;5022299;28;20194;-44
2022/06/11 03:41:07;;;;;;;6.53;3.70;;;20.90;53.90;;;;;;5024227;28;20523;-44
2022/06/11 03:43:33;;;;;;;3.17;2.97;;;20.90;53.60;;;;;;5022887;28;20452;-44
2022/06/11 03:45:59;;;;;;;3.90;3.43;;;20.80;54.00;;;;;;5023949;28;20436;-44
2022/06/11 03:48:28;;;;;;;4.10;3.70;;;20.80;54.20;;;;;;5016106;28;20507;-44
2022/06/11 03:50:54;;;;;;;3.73;3.43;;;20.90;53.80;;;;;;5003663;28;20198;-44
2022/06/11 03:53:20;;;;;;;3.67;3.37;;;21.00;53.60;;;;;;5014638;28;20439;-44
2022/06/11 03:55:45;;;;;;;3.53;3.23;;;20.90;53.70;;;;;;5025200;28;20447;-44
2022/06/11 03:58:13;;;;;;;4.03;3.67;;;20.80;53.70;;;;;;5016284;28;20235;-43
2022/06/11 04:03:25;;;;;;;3.73;3.43;;;21.00;53.30;;;;;;5029392;28;20482;-43
2022/06/11 04:05:52;;;;;;;4.33;3.50;;;21.10;53.20;;;;;;5022571;28;20475;-44
2022/06/11 04:08:18;;;;;;;4.50;3.80;;;21.20;53.00;;;;;;5016025;28;20484;-43
2022/06/11 04:10:45;;;;;;;5.60;3.27;;;21.10;53.00;;;;;;5024851;28;20467;-43
2022/06/11 04:13:11;;;;;;;4.07;3.67;;;21.10;53.00;;;;;;5026393;28;20437;-43
2022/06/11 04:15:38;;;;;;;5.13;3.30;;;21.10;53.10;;;;;;5027419;28;20543;-46
2022/06/11 04:18:06;;;;;;;3.47;3.17;;;20.90;53.30;;;;;;5019416;28;20445;-44
2022/06/11 04:20:32;;;;;;;4.30;3.50;;;20.90;53.90;;;;;;5023769;28;20447;-45
2022/06/11 04:22:59;;;;;;;4.13;3.30;;;21.00;53.60;;;;;;5028142;28;20448;-43
2022/06/11 04:25:25;;;;;;;3.07;2.87;;;21.10;53.20;;;;;;5021624;28;20463;-44
2022/06/11 04:27:53;;;;;;;3.70;3.40;;;21.30;53.10;;;;;;5023033;28;20502;-44
2022/06/11 04:30:23;;;;;;;3.73;3.47;;;21.40;52.70;;;;;;5017072;28;20280;-42
2022/06/11 04:32:48;;;;;;;3.60;3.30;;;21.40;52.70;;;;;;5019396;28;20440;-44
2022/06/11 04:35:14;;;;;;;3.60;3.30;;;21.40;52.40;;;;;;5016866;28;20470;-44
2022/06/11 04:37:40;;;;;;;3.33;3.03;;;21.40;52.40;;;;;;5022911;28;20201;-42
2022/06/11 04:40:08;;;;;;;3.40;3.20;;;21.50;52.40;;;;;;5014654;28;20448;-43
2022/06/11 04:42:34;;;;;;;3.50;3.23;;;21.40;52.40;;;;;;5012985;28;20205;-43
2022/06/11 04:45:01;;;;;;;3.63;3.20;;;21.40;52.50;;;;;;5018056;28;20475;-46
2022/06/11 04:47:29;;;;;;;4.90;4.10;;;21.30;52.80;;;;;;5024964;28;21463;-43
2022/06/11 04:49:57;;;;;;;12.70;3.20;;;21.20;53.00;;;;;;5020941;28;20547;-46
2022/06/11 04:52:24;;;;;;;3.90;3.00;;;21.20;52.90;;;;;;5019489;28;20952;-47
2022/06/11 04:54:49;;;;;;;4.70;3.30;;;21.10;53.30;;;;;;5026913;28;20493;-42
2022/06/11 04:57:16;;;;;;;3.63;3.40;;;21.00;53.60;;;;;;5019509;28;20429;-44
2022/06/11 04:59:42;;;;;;;5.80;3.70;;;20.90;53.70;;;;;;5012611;28;20186;-42
2022/06/11 05:02:08;;;;;;;5.30;3.23;;;20.80;54.20;;;;;;5011926;28;20448;-43
2022/06/11 05:04:34;;;;;;;4.50;3.80;;;20.80;54.20;;;;;;5024298;28;20193;-43
2022/06/11 05:06:59;;;;;;;5.43;3.03;;;20.80;54.50;;;;;;5016765;28;20507;-43
2022/06/11 05:09:28;;;;;;;5.17;3.43;;;20.70;54.60;;;;;;5020856;28;20448;-44
2022/06/11 05:11:55;;;;;;;3.50;3.20;;;20.50;54.90;;;;;;5017147;28;20675;-43
2022/06/11 05:14:22;;;;;;;3.83;3.53;;;20.40;55.30;;;;;;5024549;28;20441;-44
2022/06/11 05:16:48;;;;;;;4.63;3.50;;;20.00;56.00;;;;;;5018429;28;20436;-46
2022/06/11 05:19:18;;;;;;;4.33;3.03;;;20.00;56.70;;;;;;5024875;28;20444;-43
2022/06/11 05:21:44;;;;;;;4.80;3.03;;;20.30;56.20;;;;;;5016916;28;20909;-46
2022/06/11 05:24:10;;;;;;;3.73;3.30;;;20.60;55.40;;;;;;5022948;28;20775;-43
2022/06/11 05:26:46;;;;;;;4.60;4.20;;;20.50;55.20;;;;;;5020418;28;20982;-43
2022/06/11 05:29:22;;;;;;;3.97;3.40;;;20.60;54.80;;;;;;5019387;28;20509;-43
2022/06/11 05:31:47;;;;;;;3.77;3.40;;;20.80;54.60;;;;;;5022378;28;20454;-43
2022/06/11 05:34:13;;;;;;;6.30;3.47;;;20.80;54.50;;;;;;5024506;28;20478;-42
2022/06/11 05:36:40;;;;;;;3.63;2.97;;;21.00;54.60;;;;;;5024176;28;20300;-44
2022/06/11 05:39:05;;;;;;;3.57;3.30;;;21.40;53.90;;;;;;5015237;28;20228;-45
2022/06/11 05:41:31;;;;;;;3.40;2.90;;;21.70;52.80;;;;;;5033499;28;20479;-43
2022/06/11 05:43:57;;;;;;;3.17;2.93;;;21.90;52.00;;;;;;5019925;28;20200;-47
2022/06/11 05:46:26;;;;;;;5.33;2.37;;;22.10;51.80;;;;;;5023500;28;20193;-45
2022/06/11 05:48:58;;;;;;;4.70;3.07;;;22.10;51.40;;;;;;5022652;28;21146;-44
2022/06/11 05:51:39;;;;;;;3.43;3.13;;;22.20;51.40;;;;;;5023533;28;20451;-42
2022/06/11 05:54:10;;;;;;;4.63;2.70;;;22.30;51.40;;;;;;5016371;28;20534;-46
2022/06/11 05:56:37;;;;;;;2.87;2.67;;;22.40;51.00;;;;;;5026072;28;20448;-45
2022/06/11 05:59:07;;;;;;;2.87;2.60;;;22.60;50.60;;;;;;5023911;28;20448;-42
2022/06/11 06:01:37;;;;;;;2.83;2.60;;;22.70;50.50;;;;;;5022223;28;20516;-43
2022/06/11 06:04:03;;;;;;;3.10;2.80;;;22.80;50.40;;;;;;5021981;28;20448;-45
2022/06/11 06:06:28;;;;;;;3.23;2.93;;;22.80;50.40;;;;;;5030435;28;20509;-43
2022/06/11 06:08:54;;;;;;;7.63;2.93;;;22.90;50.40;;;;;;5020015;28;20491;-44
2022/06/11 06:11:19;;;;;;;3.80;2.60;;;22.80;50.30;;;;;;5020123;28;20277;-45
2022/06/11 06:13:48;;;;;;;3.23;2.97;;;23.00;50.30;;;;;;5028683;28;20198;-44
2022/06/11 06:16:18;;;;;;;2.60;2.40;;;22.80;50.40;;;;;;5019319;28;20637;-44
2022/06/11 06:18:44;;;;;;;3.20;3.00;;;22.70;50.60;;;;;;5029299;28;20443;-43
2022/06/11 06:21:10;;;;;;;2.90;2.70;;;22.70;50.80;;;;;;5021781;28;20439;-43
2022/06/11 06:23:36;;;;;;;2.67;2.47;;;23.00;50.40;;;;;;5027317;28;20948;-43
2022/06/11 06:26:03;;;;;;;3.30;3.00;;;23.00;49.90;;;;;;5027025;28;20444;-42
2022/06/11 06:28:32;;;;;;;4.47;2.63;;;23.20;49.60;;;;;;5027593;28;20233;-44
2022/06/11 06:30:59;;;;;;;3.00;2.57;;;22.90;49.60;;;;;;5030227;28;20474;-42
2022/06/11 06:33:26;;;;;;;2.80;2.40;;;23.20;49.50;;;;;;5023014;28;20450;-43
2022/06/11 06:35:52;;;;;;;2.60;2.40;;;23.30;49.10;;;;;;5026687;28;20440;-43
2022/06/11 06:38:18;;;;;;;2.77;2.43;;;23.60;48.80;;;;;;5020364;28;20466;-43
2022/06/11 06:40:43;;;;;;;2.63;2.43;;;23.70;48.70;;;;;;5040905;28;20275;-44
2022/06/11 06:43:09;;;;;;;2.80;2.60;;;23.80;48.40;;;;;;5034609;28;20852;-43
2022/06/11 06:45:35;;;;;;;3.53;2.50;;;23.90;48.00;;;;;;5021070;28;20190;-42
2022/06/11 06:48:02;;;;;;;2.80;2.53;;;24.00;47.50;;;;;;5026953;28;20239;-42
2022/06/11 06:50:28;;;;;;;3.87;3.03;;;24.10;47.50;;;;;;5020977;28;20495;-42
2022/06/11 06:52:55;;;;;;;4.70;2.70;;;24.20;47.20;;;;;;5021571;28;20439;-43
2022/06/11 06:55:21;;;;;;;3.20;2.60;;;24.30;47.20;;;;;;5021947;28;20505;-44
2022/06/11 06:57:47;;;;;;;2.80;2.60;;;24.40;47.00;;;;;;5027786;28;20444;-42
2022/06/11 07:00:13;;;;;;;3.93;2.30;;;24.50;47.10;;;;;;5027179;28;20235;-43
2022/06/11 07:02:39;;;;;;;6.63;2.50;;;24.60;47.00;;;;;;5025433;28;20201;-45
2022/06/11 07:05:05;;;;;;;3.20;2.70;;;24.60;46.90;;;;;;5026996;28;20531;-43
2022/06/11 07:07:31;;;;;;;3.40;2.80;;;24.80;47.20;;;;;;5028622;28;20479;-42
2022/06/11 07:09:57;;;;;;;2.63;2.43;;;24.60;47.20;;;;;;5022202;28;20499;-43
2022/06/11 07:12:23;;;;;;;2.80;2.53;;;24.70;47.40;;;;;;5016581;28;20585;-42
2022/06/11 07:14:49;;;;;;;6.90;2.80;;;24.80;47.10;;;;;;5023151;28;21059;-42
2022/06/11 07:17:17;;;;;;;3.20;2.57;;;25.00;46.80;;;;;;5022260;28;20535;-44
2022/06/11 07:19:50;;;;;;;2.87;2.63;;;25.30;46.70;;;;;;5024968;28;20205;-43
2022/06/11 07:22:26;;;;;;;3.33;2.70;;;25.20;46.20;;;;;;5029510;28;20865;-42
2022/06/11 07:24:53;;;;;;;2.83;2.60;;;25.00;46.90;;;;;;5023923;28;20473;-43
2022/06/11 07:27:24;;;;;;;3.27;2.50;;;25.20;46.80;;;;;;5030029;28;20474;-42
2022/06/11 07:29:59;;;;;;;4.30;2.30;;;25.60;45.90;;;;;;5028639;28;20536;-43
2022/06/11 07:32:27;;;;;;;5.60;2.73;;;25.80;46.00;;;;;;5029278;28;20419;-44
2022/06/11 07:34:53;;;;;;;3.03;2.73;;;25.90;45.30;;;;;;5025787;28;20428;-42
2022/06/11 07:37:19;;;;;;;3.13;2.50;;;26.10;44.90;;;;;;5030088;28;20486;-44
2022/06/11 07:39:45;;;;;;;2.90;2.53;;;26.40;44.30;;;;;;5029962;28;20448;-43
2022/06/11 07:42:11;;;;;;;3.87;2.83;;;26.50;44.60;;;;;;5031213;28;20205;-43
2022/06/11 07:44:38;;;;;;;3.13;2.10;;;26.60;44.50;;;;;;5025545;28;20194;-42
2022/06/11 07:47:05;;;;;;;4.93;2.53;;;26.70;43.80;;;;;;5030816;28;20432;-43
2022/06/11 07:49:31;;;;;;;2.93;2.73;;;26.80;43.30;;;;;;5027890;28;20444;-42
2022/06/11 07:51:57;;;;;;;3.73;2.60;;;26.80;43.40;;;;;;5028052;28;20439;-42
2022/06/11 07:54:22;;;;;;;3.30;2.57;;;27.00;43.20;;;;;;5030981;28;20448;-43
2022/06/11 07:56:48;;;;;;;3.77;2.90;;;27.10;43.00;;;;;;5026116;28;20228;-43
2022/06/11 07:59:13;;;;;;;2.87;2.67;;;27.30;42.60;;;;;;5019158;28;20598;-43
2022/06/11 08:01:39;;;;;;;2.90;2.60;;;27.40;42.40;;;;;;5028935;28;20248;-42
2022/06/11 08:04:05;;;;;;;4.27;3.07;;;27.50;41.50;;;;;;5020623;28;20198;-42
2022/06/11 08:06:31;;;;;;;4.30;2.70;;;27.60;41.30;;;;;;5029353;28;20208;-44
2022/06/11 08:08:57;;;;;;;4.07;2.60;;;27.50;41.40;;;;;;5022053;28;20295;-42
2022/06/11 08:11:23;;;;;;;5.73;3.67;;;27.20;40.60;;;;;;5030835;28;20931;-43
2022/06/11 08:13:49;;;;;;;2.67;2.47;;;26.80;41.50;;;;;;5028411;28;20447;-43
2022/06/11 08:16:15;;;;;;;2.70;2.50;;;27.10;41.70;;;;;;5030440;28;20428;-43
2022/06/11 08:18:41;;;;;;;4.10;2.70;;;27.40;41.40;;;;;;5025199;28;20194;-42
2022/06/11 08:21:08;;;;;;;3.97;2.70;;;27.60;41.10;;;;;;5030598;28;20450;-42
2022/06/11 08:23:34;;;;;;;4.53;3.00;;;27.80;40.60;;;;;;5024277;28;21407;-43
2022/06/11 08:26:00;;;;;;;2.60;2.40;;;27.70;39.80;;;;;;5023097;28;20448;-44
2022/06/11 08:28:26;;;;;;;3.10;2.37;;;27.90;40.20;;;;;;5023984;28;20570;-43
2022/06/11 08:30:51;;;;;;;3.53;2.73;;;28.00;39.90;;;;;;5029795;28;20208;-42
2022/06/11 08:33:19;;;;;;;3.00;2.80;;;28.10;40.00;;;;;;5028916;28;21052;-44
2022/06/11 08:35:44;;;;;;;3.20;2.30;;;28.30;40.00;;;;;;5023455;28;20205;-44
2022/06/11 08:38:11;;;;;;;4.00;2.60;;;28.60;39.30;;;;;;5021487;28;20444;-42
2022/06/11 08:40:55;;;;;;;4.40;2.80;;;28.70;39.50;;;;;;5030503;28;20189;-43
2022/06/11 08:43:35;;;;;;;6.00;2.50;;;28.80;38.40;;;;;;5024144;28;20436;-42
2022/06/11 08:46:07;;;;;;;3.40;2.93;;;28.80;38.40;;;;;;5018450;28;20841;-43
2022/06/11 08:48:46;;;;;;;2.43;2.23;;;28.70;37.70;;;;;;5028007;28;20824;-46
2022/06/11 08:51:49;;;;;;;3.97;2.87;;;28.80;37.70;;;;;;5022229;28;20448;-43
2022/06/11 08:54:31;;;;;;;2.83;2.23;;;29.00;37.60;;;;;;5029344;28;20895;-43
2022/06/11 08:57:18;;;;;;;2.53;2.33;;;29.20;38.00;;;;;;5026417;28;20431;-43
2022/06/11 08:59:55;;;;;;;5.00;2.07;;;29.40;37.60;;;;;;5024790;28;20462;-44
2022/06/11 09:02:51;;;;;;;4.17;2.47;;;29.50;38.60;;;;;;5028062;28;20443;-43
2022/06/11 09:05:17;;;;;;;5.90;2.40;;;29.60;37.30;;;;;;5026720;28;20448;-46
2022/06/11 09:07:49;;;;;;;2.60;2.40;;;29.80;37.20;;;;;;5029459;28;20506;-45
2022/06/11 09:10:32;;;;;;;3.10;2.80;;;29.90;36.40;;;;;;5028818;28;20691;-44
2022/06/11 09:13:16;;;;;;;2.40;2.20;;;30.10;35.90;;;;;;5016973;28;20449;-47
2022/06/11 09:15:53;;;;;;;2.67;2.47;;;30.20;36.00;;;;;;5015523;28;20550;-42
2022/06/11 09:18:40;;;;;;;2.93;2.17;;;30.10;35.80;;;;;;5011318;28;20447;-43
2022/06/11 09:21:39;;;;;;;2.53;2.13;;;30.20;37.20;;;;;;5020931;28;20509;-42
2022/06/11 09:24:39;;;;;;;5.30;3.30;;;30.50;36.10;;;;;;5023052;28;20466;-47
2022/06/11 09:27:23;;;;;;;6.13;3.37;;;30.70;36.00;;;;;;5016892;28;20481;-44
2022/06/11 09:29:59;;;;;;;4.97;2.40;;;30.70;35.10;;;;;;5035568;28;20454;-43
2022/06/11 09:32:42;;;;;;;4.27;2.67;;;30.90;34.70;;;;;;5029744;28;20462;-43
2022/06/11 09:35:20;;;;;;;3.40;2.80;;;31.00;33.60;;;;;;5031237;28;20483;-45
2022/06/11 09:38:02;;;;;;;3.63;2.20;;;31.00;34.30;;;;;;5025024;28;20460;-44
2022/06/11 09:40:52;;;;;;;4.27;2.63;;;31.20;35.80;;;;;;5018968;28;20492;-43
2022/06/11 09:43:25;;;;;;;3.33;2.17;;;31.30;33.20;;;;;;5017440;28;20475;-43
2022/06/11 09:46:00;;;;;;;3.50;2.57;;;31.40;34.10;;;;;;5026131;28;20471;-46
2022/06/11 09:48:38;;;;;;;3.27;2.33;;;31.50;34.40;;;;;;5029071;28;20517;-43
2022/06/11 09:51:18;;;;;;;2.93;2.40;;;31.70;33.30;;;;;;5027194;28;20444;-44
2022/06/11 09:53:55;;;;;;;3.83;2.50;;;31.90;32.80;;;;;;5034073;28;20415;-43
2022/06/11 09:56:44;;;;;;;1.93;1.83;;;32.00;32.50;;;;;;5026350;28;20502;-48
2022/06/11 09:59:29;;;;;;;3.83;2.60;;;32.10;32.20;;;;;;5027900;28;20551;-45
2022/06/11 10:02:16;;;;;;;3.20;2.10;;;32.20;31.70;;;;;;5026900;28;20491;-44
2022/06/11 10:04:45;;;;;;;2.50;2.30;;;32.40;32.40;;;;;;5031648;28;20466;-47
2022/06/11 10:07:19;;;;;;;2.70;2.07;;;32.50;32.10;;;;;;5021079;28;20519;-48
2022/06/11 10:09:54;;;;;;;2.43;2.20;;;32.60;31.50;;;;;;5031623;28;20523;-47
2022/06/11 10:12:49;;;;;;;4.80;2.20;;;32.70;32.40;;;;;;5022991;28;20824;-44
2022/06/11 10:15:38;;;;;;;5.90;2.30;;;32.50;31.40;;;;;;5024251;28;20495;-45
2022/06/11 10:18:19;;;;;;;2.50;2.03;;;32.70;31.70;;;;;;5020548;28;20447;-45
2022/06/11 10:20:58;;;;;;;4.90;2.20;;;32.90;30.50;;;;;;5019663;28;20847;-45
2022/06/11 10:23:45;;;;;;;2.10;1.90;;;33.30;30.70;;;;;;5029354;28;20440;-45
2022/06/11 10:26:40;;;;;;;5.33;4.10;;;33.50;30.80;;;;;;5030425;28;20493;-44
2022/06/11 10:29:11;;;;;;;2.70;2.03;;;33.70;30.00;;;;;;5022315;28;20605;-45
2022/06/11 10:31:43;;;;;;;2.50;2.20;;;33.80;29.90;;;;;;5029725;28;20819;-47
2022/06/11 10:34:11;;;;;;;2.80;2.30;;;33.90;30.40;;;;;;5028712;28;20446;-47
2022/06/11 10:36:45;;;;;;;2.47;2.27;;;33.90;28.90;;;;;;5031252;28;20437;-45
2022/06/11 10:39:21;;;;;;;3.23;1.80;;;34.20;28.90;;;;;;5024918;28;20455;-44
2022/06/11 10:41:55;;;;;;;5.27;2.57;;;34.20;28.90;;;;;;5028493;28;20487;-46
2022/06/11 10:44:23;;;;;;;3.03;2.50;;;34.10;28.30;;;;;;5027712;28;20481;-47
2022/06/11 10:46:49;;;;;;;2.07;1.87;;;34.00;28.70;;;;;;5031500;28;21109;-46
2022/06/11 10:49:19;;;;;;;5.27;2.60;;;33.90;28.30;;;;;;5031602;28;20523;-44
2022/06/11 10:52:09;;;;;;;2.33;2.13;;;33.90;28.70;;;;;;5031134;28;20455;-44
2022/06/11 10:54:35;;;;;;;3.47;2.30;;;33.80;29.20;;;;;;5029205;28;20452;-44
2022/06/11 10:57:03;;;;;;;3.40;2.50;;;33.80;28.90;;;;;;5030434;28;20447;-46
2022/06/11 10:59:32;;;;;;;3.27;2.13;;;34.00;29.40;;;;;;5029486;28;20205;-45
2022/06/11 11:02:20;;;;;;;4.30;2.20;;;34.20;28.90;;;;;;5028755;28;20479;-44
2022/06/11 11:05:05;;;;;;;3.10;2.30;;;34.40;28.50;;;;;;5029182;28;20692;-44
2022/06/11 11:08:05;;;;;;;3.13;1.97;;;34.50;28.70;;;;;;5026318;28;20467;-45
2022/06/11 11:10:36;;;;;;;2.97;2.20;;;34.70;28.60;;;;;;5035891;28;20450;-45
2022/06/11 11:13:17;;;;;;;2.57;2.37;;;34.90;28.30;;;;;;5043461;28;20428;-45
2022/06/11 11:15:47;;;;;;;2.40;2.03;;;35.10;28.60;;;;;;5033757;28;20448;-46
2022/06/11 11:18:20;;;;;;;4.13;2.20;;;35.10;28.90;;;;;;5026836;28;20455;-44
2022/06/11 11:20:48;;;;;;;2.97;2.00;;;35.00;27.70;;;;;;5030679;28;20435;-44
2022/06/11 11:23:23;;;;;;;5.07;2.33;;;35.10;27.90;;;;;;5030813;28;20448;-45
2022/06/11 11:25:56;;;;;;;3.83;2.10;;;35.40;28.00;;;;;;5026681;28;20447;-46
2022/06/11 11:28:34;;;;;;;3.70;2.27;;;35.60;27.90;;;;;;5026491;28;20983;-44
2022/06/11 11:31:17;;;;;;;3.03;2.67;;;35.80;27.60;;;;;;5025696;28;20443;-44
2022/06/11 11:34:14;;;;;;;4.13;3.23;;;36.00;28.30;;;;;;5029286;28;20450;-44
2022/06/11 11:36:40;;;;;;;4.23;2.33;;;36.10;26.90;;;;;;5024420;28;20475;-44
2022/06/11 11:39:12;;;;;;;2.83;2.53;;;36.00;27.60;;;;;;5029387;28;20907;-44
2022/06/11 11:41:38;;;;;;;3.20;2.10;;;36.00;28.30;;;;;;5020201;28;20491;-47
2022/06/11 11:44:04;;;;;;;3.00;2.00;;;36.10;27.10;;;;;;5028016;28;20444;-46
2022/06/11 11:46:35;;;;;;;4.70;2.53;;;36.10;27.40;;;;;;5023342;28;20457;-44
2022/06/11 11:49:04;;;;;;;2.97;2.23;;;36.00;26.50;;;;;;5030526;28;20229;-44
2022/06/11 11:51:34;;;;;;;2.63;2.37;;;35.90;26.70;;;;;;5022238;28;20820;-46
2022/06/11 11:54:06;;;;;;;2.93;2.17;;;36.00;27.60;;;;;;5022597;28;20948;-47
2022/06/11 11:56:38;;;;;;;3.07;2.10;;;36.00;27.40;;;;;;5022097;28;20491;-46
2022/06/11 11:59:15;;;;;;;2.93;2.70;;;36.10;27.30;;;;;;5016719;28;20487;-44
2022/06/11 12:01:43;;;;;;;3.87;3.13;;;35.80;27.60;;;;;;5014547;28;20551;-47
2022/06/11 12:04:11;;;;;;;2.80;2.33;;;36.00;27.30;;;;;;5027187;28;20488;-47
2022/06/11 12:06:56;;;;;;;3.10;2.50;;;36.20;27.40;;;;;;5017593;28;20444;-48
2022/06/11 12:09:58;;;;;;;3.53;3.03;;;36.20;27.60;;;;;;5022758;28;20488;-47
2022/06/11 12:12:34;;;;;;;3.67;2.20;;;36.40;26.90;;;;;;5023496;28;20470;-46
2022/06/11 12:15:13;;;;;;;3.50;2.40;;;36.60;27.30;;;;;;5022844;28;20521;-45
2022/06/11 12:17:54;;;;;;;3.50;2.23;;;36.80;26.50;;;;;;5022119;28;20466;-48
2022/06/11 12:20:29;;;;;;;4.60;2.53;;;36.80;25.90;;;;;;5028477;28;20535;-45
2022/06/11 12:23:18;;;;;;;3.73;2.53;;;36.90;26.00;;;;;;5024877;28;20446;-46
2022/06/11 12:26:18;;;;;;;4.20;2.40;;;36.90;27.00;;;;;;5018258;28;20436;-46
2022/06/11 12:28:49;;;;;;;7.77;2.87;;;36.80;26.30;;;;;;5024336;28;20488;-45
2022/06/11 12:31:15;;;;;;;2.47;2.27;;;36.80;26.50;;;;;;5021150;28;20525;-48
2022/06/11 12:33:43;;;;;;;3.20;3.00;;;36.90;26.00;;;;;;5020367;28;20443;-46
2022/06/11 12:36:30;;;;;;;3.20;2.83;;;36.90;25.90;;;;;;5021415;28;20193;-45
2022/06/11 12:39:04;;;;;;;4.20;2.73;;;36.90;25.90;;;;;;5015383;28;20463;-46
2022/06/11 12:42:08;;;;;;;3.03;2.70;;;36.70;26.10;;;;;;5020122;28;20456;-45
2022/06/11 12:45:13;;;;;;;4.40;2.97;;;36.90;26.30;;;;;;5022318;28;21299;-45
2022/06/11 12:48:01;;;;;;;4.03;2.30;;;;;;;;;;5002383;28;20492;-46
2022/06/11 12:50:38;;;;;;;2.57;2.40;;;37.40;25.90;;;;;;5024768;28;20443;-45
2022/06/11 12:53:11;;;;;;;2.90;2.60;;;37.50;25.80;;;;;;5031390;28;20449;-45
2022/06/11 12:56:07;;;;;;;4.03;2.17;;;37.40;26.70;;;;;;5017595;28;20780;-45
2022/06/11 12:58:36;;;;;;;3.00;2.80;;;37.50;25.50;;;;;;5022212;28;20451;-44
2022/06/11 13:01:23;;;;;;;2.77;2.40;;;37.40;26.20;;;;;;5041014;28;20479;-46
2022/06/11 13:04:19;;;;;;;2.70;2.50;;;37.50;26.10;;;;;;5023877;28;20891;-46
2022/06/11 13:07:04;;;;;;;2.40;2.20;;;37.70;25.20;;;;;;5027259;28;20443;-45
2022/06/11 13:09:54;;;;;;;3.30;2.63;;;37.50;25.30;;;;;;5024290;28;21035;-46
2022/06/11 13:13:00;;;;;;;2.77;2.50;;;37.70;25.30;;;;;;5032779;28;20841;-45
2022/06/11 13:15:37;;;;;;;3.37;2.70;;;37.40;24.60;;;;;;5020637;28;20495;-45
2022/06/11 13:18:16;;;;;;;2.80;2.60;;;37.40;25.80;;;;;;5025163;28;20497;-46
2022/06/11 13:20:56;;;;;;;4.20;2.33;;;37.40;26.50;;;;;;5025594;28;21174;-49